Latest Weather Observations for Wudinna Airport

IDS60801

Issued at 12:32 pm CST Saturday 18 April 2015 (issued every 30 minutes, with the page automatically refreshed every 10 minutes)

About weather observations | Map of weather stations | Latest weather observations for SA | Other Formats
Station Details ID: 018083 Name: WUDINNA AERO Lat: -33.04 Lon: 135.45 Height: 86.4 m
Data from the previous 72 hours. | See also: Recent months at Wudinna Airport
Date/Time
CST
Temp
°C
App
Temp
°C
Dew
Point
Rel
Hum
%
Delta-T
°C
Wind Press
QNH
hPa
Press
MSL
hPa
Rain
since 9 am
mm
Dir
 
Spd
km/h
Gust
km/h
Spd
kts
Gust
kts
18/12:30pm 19.9 15.9 11.7 59 4.5 W 24 39 13 21 1020.8 - 0.0
18/12:00pm 18.5 14.5 11.8 65 3.7 WNW 24 32 13 17 1021.2 1021.0 0.0
18/11:30am 18.2 12.5 11.3 64 3.8 W 32 44 17 24 1021.5 - 0.0
18/11:00am 18.3 12.8 10.7 61 4.1 W 30 35 16 19 1021.4 - 0.0
18/10:30am 18.8 13.7 10.6 59 4.4 WNW 28 35 15 19 1021.3 - 0.0
18/10:00am 18.4 13.9 10.0 58 4.5 WNW 24 32 13 17 1021.3 - 0.0
18/09:30am 16.6 13.2 10.7 68 3.1 NNW 19 24 10 13 1021.2 - 0.0
18/09:00am 15.5 11.6 9.6 68 3.1 NW 20 26 11 14 1021.2 1021.0 0.4
18/08:30am 14.5 10.9 9.9 74 2.4 NW 19 24 10 13 1021.2 - 0.4
18/08:00am 13.3 9.9 9.2 76 2.1 NW 17 20 9 11 1020.8 - 0.4
18/07:30am 11.9 9.1 8.7 81 1.6 NNW 13 17 7 9 1020.4 - 0.4
18/07:00am 10.8 7.2 8.2 84 1.3 NW 17 19 9 10 1020.1 - 0.4
18/06:30am 10.1 6.8 8.0 87 1.0 NW 15 15 8 8 1020.0 - 0.4
18/06:00am 10.5 7.6 8.1 85 1.2 NW 13 15 7 8 1019.4 1019.3 0.4
18/05:30am 11.3 8.5 8.7 84 1.3 NW 13 17 7 9 1019.2 - 0.4
18/05:00am 11.2 8.6 9.3 88 1.0 WNW 13 17 7 9 1019.2 - 0.4
18/04:30am 10.1 7.6 8.4 89 0.8 NNW 11 13 6 7 1018.9 - 0.4
18/04:00am 9.7 7.4 7.6 87 1.0 NNW 9 11 5 6 1018.8 - 0.4
18/03:30am 10.4 7.2 8.5 88 0.9 W 15 17 8 9 1018.8 - 0.4
18/03:00am 10.1 7.2 8.0 87 1.0 W 13 15 7 8 1018.8 1018.7 0.4
18/02:30am 10.2 7.7 8.1 87 1.0 W 11 13 6 7 1018.7 - 0.4
18/02:00am 11.2 8.4 8.4 83 1.4 W 13 17 7 9 1019.0 - 0.4
18/01:30am 11.5 8.8 8.9 84 1.3 WSW 13 17 7 9 1019.3 - 0.4
18/01:00am 12.1 9.4 9.1 82 1.5 WSW 13 15 7 8 1019.3 - 0.4
18/12:30am 13.1 10.3 9.9 81 1.7 WSW 15 19 8 10 1019.5 - 0.4
18/12:00am 13.4 10.6 11.3 87 1.1 W 17 19 9 10 1019.9 1019.7 0.4
 
Date/Time
CST
Temp
°C
App
Temp
°C
Dew
Point
Rel
Hum
%
Delta-T
°C
Wind Press
QNH
hPa
Press
MSL
hPa
Rain
since 9 am
mm
Dir
 
Spd
km/h
Gust
km/h
Spd
kts
Gust
kts
17/11:30pm 13.9 11.9 11.6 86 1.2 WSW 13 17 7 9 1019.9 - 0.4
17/11:00pm 14.7 13.6 12.0 84 1.5 WSW 9 13 5 7 1020.3 - 0.4
17/10:30pm 14.8 12.9 11.9 83 1.6 SW 13 17 7 9 1020.6 - 0.4
17/10:00pm 15.3 13.9 12.2 82 1.7 SW 11 13 6 7 1020.5 - 0.4
17/09:30pm 15.3 14.2 12.1 81 1.7 SW 9 13 5 7 1020.4 - 0.4
17/09:00pm 15.3 14.6 12.1 81 1.7 SW 7 9 4 5 1020.3 1020.1 0.4
17/08:30pm 15.4 13.9 11.8 79 2.0 SW 11 15 6 8 1020.0 - 0.4
17/08:00pm 15.6 13.2 11.4 76 2.3 SSW 15 20 8 11 1019.6 - 0.4
17/07:30pm 15.9 12.6 11.5 75 2.4 SSW 20 30 11 16 1019.3 - 0.4
17/07:00pm 16.2 11.8 11.8 75 2.4 SSW 26 33 14 18 1019.0 - 0.4
17/06:30pm 16.7 13.5 12.0 74 2.6 SSW 20 26 11 14 1018.6 - 0.4
17/06:00pm 17.1 13.5 12.0 72 2.8 SSW 22 28 12 15 1018.2 1018.1 0.4
17/05:30pm 17.7 14.8 12.8 73 2.7 SSW 20 26 11 14 1017.9 - 0.4
17/05:00pm 18.4 15.1 12.8 70 3.1 SSW 22 28 12 15 1017.5 - 0.4
17/04:30pm 19.0 15.3 13.8 72 3.0 SSW 26 32 14 17 1017.2 - 0.4
17/04:00pm 18.9 15.5 12.6 67 3.5 SSW 22 30 12 16 1017.2 - 0.4
17/03:30pm 19.7 17.1 13.2 66 3.7 SSW 19 24 10 13 1017.1 - 0.4
17/03:00pm 18.6 15.7 13.9 74 2.7 SSW 22 30 12 16 1017.3 1017.2 0.4
17/02:30pm 16.8 12.2 13.5 81 1.9 SSW 30 37 16 20 1017.5 - 0.4
17/02:00pm 16.4 11.8 13.5 83 1.6 SSW 30 41 16 22 1017.5 - 0.4
17/01:30pm 18.0 14.9 13.5 75 2.6 S 22 30 12 16 1017.7 - 0.4
17/01:00pm 18.5 16.3 14.4 77 2.4 S 19 22 10 12 1018.0 - 0.4
17/12:30pm 17.4 15.0 14.3 82 1.8 S 20 28 11 15 1018.4 - 0.4
17/12:00pm 17.0 14.6 14.3 84 1.5 S 20 26 11 14 1019.0 1018.9 0.4
17/11:30am 16.5 13.8 14.5 88 1.1 S 22 30 12 16 1019.6 - 0.4
17/11:00am 16.1 13.5 14.8 92 0.7 S 22 30 12 16 1020.2 - 0.4
17/10:30am 15.2 11.8 13.7 91 0.8 S 24 30 13 16 1020.3 - 0.2
17/10:00am 15.2 12.4 14.2 94 0.6 S 22 30 12 16 1020.4 - 0.2
17/09:30am 15.1 12.9 14.3 95 0.5 SSE 19 28 10 15 1020.6 - 0.2
17/09:00am 14.8 12.3 14.0 95 0.5 S 20 28 11 15 1020.6 1020.4 20.4
17/08:30am 14.8 12.5 14.0 95 0.5 S 19 24 10 13 1020.7 - 20.0
17/08:00am 14.7 12.1 13.9 95 0.5 S 20 24 11 13 1020.6 - 19.4
17/07:30am 14.5 12.4 13.7 95 0.4 SSW 17 20 9 11 1020.3 - 19.0
17/07:00am 14.5 12.1 13.7 95 0.4 S 19 24 10 13 1020.1 - 18.6
17/06:30am 14.4 13.5 13.6 95 0.4 S 11 15 6 8 1020.1 - 18.0
17/06:00am 14.2 13.6 13.4 95 0.4 S 9 13 5 7 1019.8 1019.6 17.0
17/05:30am 14.0 12.5 13.1 94 0.5 SSE 13 20 7 11 1019.8 - 16.6
17/05:00am 14.1 11.8 13.1 94 0.6 S 17 22 9 12 1019.6 - 16.4
17/04:30am 14.2 12.3 13.1 93 0.6 S 15 19 8 10 1019.5 - 16.0
17/04:00am 14.2 12.7 13.1 93 0.6 S 13 20 7 11 1019.5 - 16.0
17/03:30am 14.2 13.5 13.1 93 0.6 SSE 9 13 5 7 1019.3 - 16.0
17/03:00am 13.9 13.4 12.8 93 0.6 SSE 7 13 4 7 1020.0 1019.8 16.0
17/02:30am 14.0 12.9 13.1 94 0.5 SSE 11 17 6 9 1020.4 - 16.0
17/02:00am 14.3 13.7 13.5 95 0.4 SSE 9 15 5 8 1020.8 - 16.0
17/01:30am 14.3 12.9 13.5 95 0.4 SSE 13 19 7 10 1021.0 - 16.0
17/01:00am 14.2 11.7 13.4 95 0.4 SSE 19 24 10 13 1021.2 - 15.8
17/12:30am 14.3 12.2 13.5 95 0.4 S 17 24 9 13 1022.0 - 15.0
17/12:00am 14.4 12.6 13.4 94 0.6 SSE 15 19 8 10 1022.6 1022.4 13.8
 
Date/Time
CST
Temp
°C
App
Temp
°C
Dew
Point
Rel
Hum
%
Delta-T
°C
Wind Press
QNH
hPa
Press
MSL
hPa
Rain
since 9 am
mm
Dir
 
Spd
km/h
Gust
km/h
Spd
kts
Gust
kts
16/11:30pm 14.4 12.6 13.4 94 0.6 S 15 19 8 10 1022.9 - 11.8
16/11:00pm 14.6 11.9 13.6 94 0.6 SSE 20 26 11 14 1022.7 - 9.2
16/10:30pm 14.6 11.6 13.6 94 0.6 S 22 30 12 16 1022.7 - 8.8
16/10:00pm 14.8 12.8 13.8 94 0.6 SSE 17 24 9 13 1022.6 - 8.4
16/09:30pm 14.7 13.0 13.7 94 0.6 SSE 15 22 8 12 1022.9 - 7.8
16/09:00pm 15.0 12.7 14.0 94 0.6 SE 19 30 10 16 1022.4 1022.2 7.4
16/08:30pm 15.2 13.3 14.1 93 0.6 SE 17 22 9 12 1022.3 - 7.0
16/08:00pm 15.3 13.8 14.2 93 0.6 SE 15 20 8 11 1022.5 - 6.8
16/07:30pm 15.4 13.5 14.3 93 0.6 SE 17 22 9 12 1022.5 - 6.2
16/07:00pm 15.8 14.8 14.7 93 0.6 ESE 13 20 7 11 1022.2 - 6.0
16/06:30pm 15.8 14.8 14.5 92 0.7 ESE 13 17 7 9 1022.3 - 5.6
16/06:00pm 16.0 15.1 14.9 93 0.6 SE 13 17 7 9 1021.6 1021.4 5.4
16/05:30pm 16.3 16.1 14.8 91 0.9 E 9 15 5 8 1022.2 - 4.6
16/05:00pm 16.5 15.7 15.0 91 0.9 E 13 17 7 9 1021.8 - 4.0
16/04:30pm 16.7 15.6 15.2 91 0.9 E 15 20 8 11 1022.0 - 3.4
16/04:00pm 16.7 15.7 14.7 88 1.2 E 13 22 7 12 1022.3 - 2.8
16/03:30pm 16.8 14.6 14.3 85 1.4 E 19 26 10 14 1021.8 - 2.6
16/03:00pm 16.8 14.7 13.7 82 1.8 ESE 17 24 9 13 1021.8 1021.6 2.6
16/02:30pm 16.8 14.1 12.9 78 2.2 SE 19 26 10 14 1021.7 - 2.6
16/02:00pm 16.9 14.2 13.0 78 2.2 ESE 19 24 10 13 1022.3 - 2.6
16/01:30pm 16.7 14.2 13.4 81 1.9 E 19 24 10 13 1023.2 - 2.6
16/01:00pm 16.4 15.2 13.9 85 1.4 E 13 19 7 10 1024.4 - 2.6
16/12:30pm 16.1 15.0 14.3 89 1.0 E 13 19 7 10 1025.3 - 2.4
16/12:00pm 15.8 14.2 14.0 89 1.0 E 15 24 8 13 1025.0 1024.8 2.4
16/11:30am 15.9 14.8 14.3 90 0.9 E 13 19 7 10 1026.1 - 2.0
16/11:00am 16.3 15.7 14.7 90 0.9 E 11 17 6 9 1026.2 - 1.4
16/10:30am 16.1 15.5 14.6 91 0.9 E 11 15 6 8 1025.9 - 0.8
16/10:00am 16.1 14.7 14.6 91 0.9 ESE 15 24 8 13 1025.2 - 0.4
16/09:30am 16.2 15.4 15.1 93 0.6 ESE 13 19 7 10 1025.3 - 0.0
16/09:00am 16.2 16.2 15.2 94 0.6 ESE 9 11 5 6 1025.6 1025.5 8.0
16/08:30am 16.0 16.5 15.0 94 0.6 ESE 6 9 3 5 1026.0 - 7.4
16/08:00am 15.6 15.8 14.6 94 0.6 E 7 9 4 5 1025.9 - 6.4
16/07:30am 15.6 15.0 14.5 93 0.6 SW 11 13 6 7 1026.3 - 4.0
16/07:00am 15.5 15.2 14.4 93 0.6 ESE 9 15 5 8 1025.3 - 2.8
16/06:30am 15.3 14.2 14.2 93 0.6 E 13 19 7 10 1024.6 - 2.4
16/06:00am 15.2 14.7 13.9 92 0.7 ENE 9 11 5 6 1025.0 1024.8 1.2
16/05:30am 15.2 14.7 13.7 91 0.8 SE 9 13 5 7 1024.9 - 0.2
16/05:00am 15.5 14.6 13.7 89 1.0 SSW 11 13 6 7 1025.2 - 0.0
16/04:30am 15.6 14.6 13.4 87 1.2 SSE 11 15 6 8 1024.5 - 0.0
16/04:00am 15.8 14.5 13.6 87 1.2 SSE 13 19 7 10 1023.6 - 0.0
16/03:30am 15.8 14.5 13.6 87 1.2 SSE 13 19 7 10 1023.4 - 0.0
16/03:00am 15.8 14.1 13.6 87 1.2 SSE 15 20 8 11 1023.3 1023.1 0.0
16/02:30am 16.1 14.5 13.9 87 1.2 SSE 15 20 8 11 1023.4 - 0.0
16/02:00am 16.0 13.9 13.7 86 1.3 SE 17 24 9 13 1023.0 - 0.0
16/01:30am 16.2 14.9 13.7 85 1.4 SE 13 20 7 11 1023.2 - 0.0
16/01:00am 16.4 15.0 13.3 82 1.7 SSE 13 17 7 9 1023.7 - 0.0
16/12:30am 16.7 15.2 13.2 80 2.0 SSE 13 19 7 10 1023.6 - 0.0
16/12:00am 16.7 15.1 12.7 77 2.2 SE 13 19 7 10 1023.5 1023.3 0.0
 
Date/Time
CST
Temp
°C
App
Temp
°C
Dew
Point
Rel
Hum
%
Delta-T
°C
Wind Press
QNH
hPa
Press
MSL
hPa
Rain
since 9 am
mm
Dir
 
Spd
km/h
Gust
km/h
Spd
kts
Gust
kts
15/11:30pm 16.9 15.1 12.2 74 2.6 ESE 13 19 7 10 1023.3 - 0.0
15/11:00pm 17.1 15.8 11.4 69 3.1 ESE 9 15 5 8 1024.0 - 0.0
15/10:30pm 17.4 15.7 11.2 67 3.4 ESE 11 15 6 8 1024.1 - 0.0
15/10:00pm 17.8 15.7 11.1 65 3.6 SE 13 19 7 10 1023.8 - 0.0
15/09:30pm 18.2 15.8 11.3 64 3.8 SE 15 20 8 11 1023.6 - 0.0
15/09:00pm 18.6 17.0 11.4 63 3.9 SE 11 15 6 8 1023.6 1023.4 0.0
15/08:30pm 18.7 16.4 10.5 59 4.4 SSE 13 19 7 10 1023.0 - 0.0
15/08:00pm 19.4 16.8 10.7 57 4.7 S 15 20 8 11 1022.9 - 0.0
15/07:30pm 19.7 16.9 10.1 54 5.2 S 15 19 8 10 1022.5 - 0.0
15/07:00pm 20.5 17.7 10.0 51 5.7 S 15 20 8 11 1022.1 - 0.0
15/06:30pm 21.5 17.8 10.3 49 6.1 S 20 24 11 13 1021.4 - 0.0
15/06:00pm 22.5 18.2 10.6 47 6.5 S 24 30 13 16 1021.2 1021.0 0.0
15/05:30pm 24.1 20.5 10.7 43 7.5 S 20 28 11 15 1020.9 - 0.0
15/05:00pm 25.0 21.4 10.5 40 8.1 S 20 24 11 13 1020.5 - 0.0
15/04:30pm 25.7 22.8 9.5 36 8.9 S 15 20 8 11 1020.4 - 0.0
15/04:00pm 25.7 23.1 9.5 36 8.9 SSE 13 20 7 11 1020.2 - 0.0
15/03:30pm 26.4 23.9 9.7 35 9.3 SSW 13 19 7 10 1020.4 - 0.0
15/03:00pm 26.0 23.3 10.2 37 8.8 SSW 15 28 8 15 1020.4 1020.2 0.0
15/02:30pm 25.9 23.1 11.3 40 8.3 S 17 30 9 16 1020.4 - 0.0
15/02:00pm 26.0 23.6 11.4 40 8.3 S 15 24 8 13 1020.2 - 0.0
15/01:30pm 25.1 22.8 11.6 42 7.7 SSW 15 22 8 12 1020.7 - 0.0
15/01:00pm 24.4 21.4 12.0 46 7.1 SSW 19 28 10 15 1020.7 - 0.0

Other Formats:

Comma delimited format used in spreadsheet applications
http://www.bom.gov.au/fwo/IDS60801/IDS60801.95654.axf

JavaScript Object Notation format (JSON) in row-major order
http://www.bom.gov.au/fwo/IDS60801/IDS60801.95654.json